Terminal Aerodrome Forecast
Issued by NWS

Home | Current Version | Previous Version | Text Only | Print | Product List | Glossary On
Versions: 1 2 3 4 5 6 7 8 9 10 11 12 13 14 15
000
FTUS45 KVEF 310535
TAFVGT
TAF
KVGT 310535Z 3106/0106 23010KT P6SM FEW100 BKN140 BKN200
     FM310700 19010KT P6SM SCT100 BKN150 BKN200
     FM311400 VRB05KT P6SM FEW100 SCT150 BKN200
     FM311900 13008KT P6SM SCT100 SCT150 BKN200
     FM010200 17008KT P6SM SCT100 BKN150 BKN200=

USA.gov is the U.S. government's official web portal to all federal, state and local government web resources and services.